CW1961 Weather Reports


Display with metric or nautical units.
time (UTC)temp
F
wind
direction
speed
MPH
gust
MPH
rain 1hr
in
rain 24hr
in
rain mn
in
humidity
%
barometer
mb
20180816234322 72 169 6.0 9.0 0.13 0.26 0.26 94 1017.7
20180816233311 72 165 3.0 5.0 0.12 0.24 0.24 94 1018.3
20180816232325 72 161 4.0 6.0 0.12 0.23 0.23 94 1018.3
20180816231315 72 272 3.0 10.0 0.10 0.21 0.21 93 1018.7
20180816230325 72 252 4.0 10.0 0.07 0.18 0.18 92 1019.3
20180816225314 73 244 7.0 11.0 0.05 0.16 0.16 91 1019.5
20180816224325 74 261 4.0 8.0 0.02 0.13 0.13 88 1019.5
20180816223312 75 10 3.0 11.0 0.01 0.12 0.12 87 1019.4
20180816222320 75 222 8.0 19.0 0.11 0.11 0.11 85 1019.0
20180816221309 76 239 7.0 23.0 0.11 0.11 0.11 85 1019.1
20180816220323 77 269 12.0 25.0 0.11 0.11 0.11 82 1019.0
20180816215309 78 219 12.0 26.0 0.11 0.11 0.11 80 1018.3
20180816214319 80 194 6.0 23.0 0.11 0.11 0.11 82 1018.2
20180816213310 82 203 8.0 23.0 0.11 0.11 0.11 79 1016.6
20180816212320 89 215 10.0 18.0 0.00 0.00 0.00 65 1015.9
20180816211310 91 174 10.0 18.0 0.00 0.00 0.00 63 1015.2
20180816210319 92 203 9.0 23.0 0.00 0.00 0.00 61 1015.7
20180816205311 94 193 11.0 19.0 0.00 0.00 0.00 58 1015.8
20180816204321 95 200 8.0 10.0 0.00 0.00 0.00 58 1015.5
20180816203308 95 120 3.0 10.0 0.00 0.00 0.00 60 1015.6
20180816202318 96 150 6.0 10.0 0.00 0.00 0.00 58 1015.5
20180816201312 96 126 5.0 9.0 0.00 0.00 0.00 57 1015.6
20180816200322 95 155 4.0 6.0 0.00 0.00 0.00 59 1015.6
20180816195311 95 206 2.0 5.0 0.00 0.00 0.00 60 1015.8
20180816194314 94 149 3.0 7.0 0.00 0.00 0.00 60 1015.9
20180816193308 94 108 1.0 8.0 0.00 0.00 0.00 63 1016.2
20180816192318 94 149 4.0 7.0 0.00 0.00 0.00 59 1016.5
20180816191326 93 193 4.0 6.0 0.00 0.00 0.00 62 1016.7
20180816190314 93 188 4.0 6.0 0.00 0.00 0.00 63 1016.9
20180816185324 92 215 3.0 5.0 0.00 0.00 0.00 64 1017.0
20180816184313 92 215 2.0 6.0 0.00 0.00 0.00 67 1017.0
20180816183320 92 109 5.0 8.0 0.00 0.00 0.00 68 1017.1
20180816182313 91 156 2.0 5.0 0.00 0.00 0.00 70 1017.2
20180816181321 90 113 4.0 7.0 0.00 0.00 0.00 69 1017.4
20180816180312 90 146 4.0 8.0 0.00 0.00 0.00 69 1017.4
20180816175322 90 84 3.0 6.0 0.00 0.00 0.00 72 1017.4
20180816174312 89 133 5.0 8.0 0.00 0.00 0.00 71 1017.6
20180816173322 89 98 4.0 8.0 0.00 0.00 0.00 70 1017.6
20180816172309 89 164 5.0 8.0 0.00 0.00 0.00 70 1017.6
20180816171319 89 195 3.0 7.0 0.00 0.00 0.00 69 1017.7
20180816170326 88 134 2.0 7.0 0.00 0.00 0.00 72 1017.6
20180816165308 88 98 4.0 8.0 0.00 0.00 0.00 72 1017.6
20180816164316 88 107 4.0 9.0 0.00 0.00 0.00 75 1017.6
20180816163309 87 130 3.0 8.0 0.00 0.00 0.00 76 1017.7
20180816162317 87 180 3.0 9.0 0.00 0.00 0.00 73 1017.7
20180816161322 87 149 5.0 8.0 0.00 0.00 0.00 72 1017.8
20180816160312 86 100 3.0 9.0 0.00 0.00 0.00 78 1017.8
20180816155322 86 122 4.0 8.0 0.00 0.00 0.00 77 1017.7
20180816154311 85 148 5.0 9.0 0.00 0.00 0.00 79 1017.9
20180816153317 84 136 4.0 7.0 0.00 0.00 0.00 81 1017.6
20180816152322 84 159 4.0 9.0 0.00 0.00 0.00 83 1017.7
20180816151315 83 155 4.0 8.0 0.00 0.00 0.00 83 1017.9
20180816150322 82 167 2.0 8.0 0.00 0.00 0.00 86 1017.9
20180816145312 82 143 4.0 7.0 0.00 0.00 0.00 85 1017.9
20180816144322 81 175 4.0 7.0 0.00 0.00 0.00 88 1017.8
20180816143315 80 186 3.0 6.0 0.00 0.00 0.00 89 1017.6
20180816142321 79 180 3.0 7.0 0.00 0.00 0.00 91 1017.6
20180816141327 78 169 4.0 7.0 0.00 0.00 0.00 91 1017.6
20180816140316 78 166 2.0 5.0 0.00 0.00 0.00 92 1017.4
20180816135309 77 119 3.0 7.0 0.00 0.00 0.00 92 1017.6
20180816134319 76 113 1.0 4.0 0.00 0.00 0.00 94 1017.6
20180816133309 75 106 3.0 4.0 0.00 0.00 0.00 93 1017.6
20180816132319 75 94 2.0 3.0 0.00 0.00 0.00 93 1017.6
20180816131309 74 103 1.0 3.0 0.00 0.00 0.00 95 1017.6
20180816130319 73 129 1.0 3.0 0.00 0.00 0.00 97 1017.4
20180816125326 72 170 1.0 2.0 0.00 0.00 0.00 98 1017.5
20180816124319 71 171 1.0 2.0 0.00 0.00 0.00 99 1017.4
20180816123309 70 170 2.0 2.0 0.00 0.00 0.00 99 1017.3
20180816122319 69 171 1.0 2.0 0.00 0.00 0.00 99 1017.3
20180816121308 69 171 0.0 2.0 0.00 0.00 0.00 99 1017.3
20180816120322 68 177 1.0 2.0 0.00 0.00 0.00 99 1017.3
20180816115312 68 177 1.0 2.0 0.00 0.00 0.00 98 1017.3
20180816114322 67 177 1.0 2.0 0.00 0.00 0.00 98 1017.2
20180816113315 68 177 1.0 2.0 0.00 0.00 0.00 98 1017.2
20180816112325 67 177 0.0 2.0 0.00 0.00 0.00 98 1016.7
20180816111315 68 177 0.0 0.0 0.00 0.00 0.00 98 1016.6
20180816110322 68 177 0.0 0.0 0.00 0.00 0.00 98 1016.6
20180816105315 67 177 0.0 0.0 0.00 0.00 0.00 98 1016.4
20180816104325 68 177 0.0 0.0 0.00 0.00 0.00 98 1016.3
20180816103315 68 177 0.0 1.0 0.00 0.00 0.00 98 1016.3
20180816102320 68 177 0.0 1.0 0.00 0.00 0.00 98 1016.2
20180816101314 68 177 0.0 2.0 0.00 0.00 0.00 98 1016.0
20180816100324 68 177 0.0 2.0 0.00 0.00 0.00 97 1016.1
20180816095313 68 177 1.0 2.0 0.00 0.00 0.00 97 1015.9
20180816094308 68 177 1.0 2.0 0.00 0.00 0.00 98 1016.1
20180816093317 68 177 1.0 2.0 0.00 0.00 0.00 98 1016.0
20180816092327 69 177 0.0 1.0 0.00 0.00 0.00 97 1016.1
20180816091316 69 177 0.0 1.0 0.00 0.00 0.00 97 1016.1
20180816090310 69 177 0.0 0.0 0.00 0.00 0.00 97 1016.2
20180816085318 69 177 0.0 3.0 0.00 0.02 0.00 97 1016.2
20180816084324 69 177 2.0 2.0 0.00 0.02 0.00 97 1016.2
20180816083314 69 177 2.0 2.0 0.00 0.02 0.00 97 1016.2
20180816082328 70 177 2.0 3.0 0.00 0.02 0.00 97 1016.3
20180816081318 70 177 1.0 3.0 0.00 0.02 0.00 97 1016.3
20180816080328 70 177 1.0 2.0 0.00 0.02 0.00 97 1016.2
20180816075314 70 177 1.0 3.0 0.00 0.02 0.00 97 1016.2
20180816074328 69 177 0.0 3.0 0.00 0.02 0.00 97 1016.1
20180816073318 69 176 2.0 3.0 0.00 0.02 0.00 97 1016.2
20180816072327 70 176 0.0 2.0 0.00 0.02 0.00 97 1016.2
20180816071321 69 176 2.0 3.0 0.00 0.02 0.00 97 1016.1
20180816070308 69 176 2.0 3.0 0.00 0.02 0.00 97 1016.1
20180816065318 69 5 1.0 2.0 0.00 0.02 0.00 97 1016.2
20180816064327 69 5 1.0 1.0 0.00 0.02 0.00 95 1016.2
20180816063321 70 5 1.0 2.0 0.00 0.02 0.00 96 1016.2
20180816062310 69 5 0.0 0.0 0.00 0.02 0.00 95 1016.3
20180816061320 70 5 1.0 2.0 0.00 0.02 0.00 95 1016.2
20180816060310 70 5 1.0 2.0 0.00 0.02 0.00 95 1016.3
20180816055321 70 5 1.0 2.0 0.00 0.02 0.00 96 1016.0
20180816054310 71 5 1.0 2.0 0.00 0.02 0.00 95 1016.3
20180816053317 71 5 0.0 0.0 0.00 0.02 0.00 96 1016.4
20180816052311 72 5 0.0 2.0 0.00 0.02 0.00 95 1016.4
20180816051320 72 5 1.0 2.0 0.00 0.02 0.00 95 1016.6
20180816050324 72 5 0.0 1.0 0.00 0.02 0.00 93 1016.4
20180816045324 73 5 0.0 0.0 0.00 0.04 0.02 92 1016.5
20180816044312 73 5 0.0 1.0 0.00 0.04 0.02 89 1016.5
20180816043326 73 5 1.0 3.0 0.00 0.04 0.02 89 1016.3
20180816042313 73 5 2.0 3.0 0.00 0.04 0.02 89 1016.3
20180816041321 74 5 2.0 3.0 0.00 0.04 0.02 89 1016.3
20180816040309 74 5 2.0 3.0 0.00 0.04 0.02 89 1016.2
20180816035320 74 360 1.0 2.0 0.00 0.05 0.02 89 1016.2
20180816034325 74 360 1.0 3.0 0.00 0.05 0.02 89 1016.1
20180816033313 74 360 1.0 3.0 0.00 0.05 0.02 90 1016.1
20180816032321 74 360 2.0 3.0 0.00 0.05 0.02 90 1016.0
20180816031311 75 332 2.0 3.0 0.00 0.05 0.02 89 1015.8
20180816030313 75 332 3.0 3.0 0.00 0.05 0.02 87 1015.8
20180816025317 76 332 2.0 2.0 0.00 0.08 0.02 86 1015.7
20180816024324 76 332 2.0 3.0 0.00 0.08 0.02 85 1015.5
20180816023311 77 332 2.0 4.0 0.00 0.08 0.02 84 1015.4
20180816022318 77 333 3.0 4.0 0.00 0.08 0.02 84 1015.3
20180816021328 77 333 2.0 3.0 0.00 0.08 0.02 84 1015.2
20180816020316 78 333 2.0 3.0 0.00 0.08 0.02 83 1015.0
20180816015324 78 333 2.0 4.0 0.00 0.08 0.02 82 1014.8
20180816014309 79 333 3.0 4.0 0.00 0.08 0.02 81 1014.7
20180816013318 79 355 2.0 3.0 0.00 0.08 0.02 80 1014.7
20180816012310 80 355 1.0 2.0 0.00 0.08 0.02 78 1014.6
20180816011316 80 323 1.0 3.0 0.00 0.08 0.02 77 1014.4
20180816010321 81 323 2.0 4.0 0.00 0.08 0.02 75 1014.3
20180816005308 82 326 3.0 5.0 0.00 0.08 0.02 74 1014.1
20180816004322 83 340 3.0 4.0 0.00 0.08 0.02 75 1014.0
20180816003311 83 328 1.0 3.0 0.00 0.08 0.02 75 1014.0
20180816002318 84 328 3.0 4.0 0.00 0.08 0.02 70 1013.9
20180816001328 85 321 3.0 5.0 0.00 0.08 0.02 68 1013.9
20180816000321 85 297 1.0 5.0 0.00 0.08 0.02 66 1013.9
20180815235326 86 302 3.0 6.0 0.00 0.08 0.02 67 1013.9